sensor_id;sensor_type;location;lat;lon;timestamp;temperature;humidity
13744;DHT22;6943;52.368;9.966;2023-02-24T00:01:20;5.30;1.00
13744;DHT22;6943;52.368;9.966;2023-02-24T00:03:57;5.10;26.00
13744;DHT22;6943;52.368;9.966;2023-02-24T00:06:25;4.90;99.90
13744;DHT22;6943;52.368;9.966;2023-02-24T00:11:38;4.70;1.00
13744;DHT22;6943;52.368;9.966;2023-02-24T00:14:09;4.60;99.90
13744;DHT22;6943;52.368;9.966;2023-02-24T00:16:35;4.50;1.00
13744;DHT22;6943;52.368;9.966;2023-02-24T00:19:04;4.40;99.90
13744;DHT22;6943;52.368;9.966;2023-02-24T00:21:32;4.50;1.00
13744;DHT22;6943;52.368;9.966;2023-02-24T00:23:58;4.60;1.00
13744;DHT22;6943;52.368;9.966;2023-02-24T00:26:24;4.60;1.00
13744;DHT22;6943;52.368;9.966;2023-02-24T00:28:49;4.60;1.00
13744;DHT22;6943;52.368;9.966;2023-02-24T00:31:17;4.50;1.00
13744;DHT22;6943;52.368;9.966;2023-02-24T00:33:44;4.40;1.00
13744;DHT22;6943;52.368;9.966;2023-02-24T00:36:16;4.30;1.00
13744;DHT22;6943;52.368;9.966;2023-02-24T00:38:52;4.30;99.90
13744;DHT22;6943;52.368;9.966;2023-02-24T00:41:21;4.40;99.90
13744;DHT22;6943;52.368;9.966;2023-02-24T00:43:48;4.50;99.90
13744;DHT22;6943;52.368;9.966;2023-02-24T00:46:19;4.60;1.00
13744;DHT22;6943;52.368;9.966;2023-02-24T00:48:47;4.70;1.00
13744;DHT22;6943;52.368;9.966;2023-02-24T00:51:15;4.80;1.00
13744;DHT22;6943;52.368;9.966;2023-02-24T00:53:42;4.90;99.90
13744;DHT22;6943;52.368;9.966;2023-02-24T00:56:09;5.00;99.90
13744;DHT22;6943;52.368;9.966;2023-02-24T00:58:38;5.10;1.00
13744;DHT22;6943;52.368;9.966;2023-02-24T01:01:10;5.10;99.90
13744;DHT22;6943;52.368;9.966;2023-02-24T01:03:37;5.10;1.00
13744;DHT22;6943;52.368;9.966;2023-02-24T01:06:03;5.10;1.00
13744;DHT22;6943;52.368;9.966;2023-02-24T01:08:28;5.10;1.00
13744;DHT22;6943;52.368;9.966;2023-02-24T01:10:56;5.10;1.00
13744;DHT22;6943;52.368;9.966;2023-02-24T01:13:42;5.20;99.90
13744;DHT22;6943;52.368;9.966;2023-02-24T01:16:07;5.20;99.90
13744;DHT22;6943;52.368;9.966;2023-02-24T01:18:33;5.30;58.30
13744;DHT22;6943;52.368;9.966;2023-02-24T01:20:59;5.30;1.00
13744;DHT22;6943;52.368;9.966;2023-02-24T01:23:25;5.30;1.00
13744;DHT22;6943;52.368;9.966;2023-02-24T01:25:50;5.30;1.00
13744;DHT22;6943;52.368;9.966;2023-02-24T01:28:16;5.30;1.00
13744;DHT22;6943;52.368;9.966;2023-02-24T01:30:42;5.30;1.00
13744;DHT22;6943;52.368;9.966;2023-02-24T01:33:08;5.30;14.60
13744;DHT22;6943;52.368;9.966;2023-02-24T01:35:39;5.20;11.10
13744;DHT22;6943;52.368;9.966;2023-02-24T01:38:04;5.20;99.90
13744;DHT22;6943;52.368;9.966;2023-02-24T01:40:30;5.20;99.90
13744;DHT22;6943;52.368;9.966;2023-02-24T01:42:55;5.20;1.00
13744;DHT22;6943;52.368;9.966;2023-02-24T01:45:26;5.20;1.00
13744;DHT22;6943;52.368;9.966;2023-02-24T01:47:57;5.20;1.00
13744;DHT22;6943;52.368;9.966;2023-02-24T01:50:25;5.20;1.00
13744;DHT22;6943;52.368;9.966;2023-02-24T01:52:54;5.20;1.00
13744;DHT22;6943;52.368;9.966;2023-02-24T01:55:33;5.20;1.00
13744;DHT22;6943;52.368;9.966;2023-02-24T01:58:07;5.20;1.00
13744;DHT22;6943;52.368;9.966;2023-02-24T02:00:35;5.20;1.00
13744;DHT22;6943;52.368;9.966;2023-02-24T02:03:22;5.20;26.90
13744;DHT22;6943;52.368;9.966;2023-02-24T02:05:53;5.20;99.90
13744;DHT22;6943;52.368;9.966;2023-02-24T02:08:21;5.20;1.00
13744;DHT22;6943;52.368;9.966;2023-02-24T02:10:48;5.20;1.00
13744;DHT22;6943;52.368;9.966;2023-02-24T02:13:15;5.30;1.00
13744;DHT22;6943;52.368;9.966;2023-02-24T02:16:02;5.20;1.00
13744;DHT22;6943;52.368;9.966;2023-02-24T02:18:54;5.20;99.90
13744;DHT22;6943;52.368;9.966;2023-02-24T02:21:35;5.20;99.90
13744;DHT22;6943;52.368;9.966;2023-02-24T02:24:29;5.20;99.90
13744;DHT22;6943;52.368;9.966;2023-02-24T02:33:07;5.20;99.90
13744;DHT22;6943;52.368;9.966;2023-02-24T02:35:52;5.20;16.20
13744;DHT22;6943;52.368;9.966;2023-02-24T02:41:33;5.20;1.00
13744;DHT22;6943;52.368;9.966;2023-02-24T02:44:10;5.20;1.00
13744;DHT22;6943;52.368;9.966;2023-02-24T02:46:47;5.10;1.00
13744;DHT22;6943;52.368;9.966;2023-02-24T02:49:28;5.10;1.00
13744;DHT22;6943;52.368;9.966;2023-02-24T02:52:00;5.10;1.00
13744;DHT22;6943;52.368;9.966;2023-02-24T02:54:46;5.00;1.00
13744;DHT22;6943;52.368;9.966;2023-02-24T02:57:20;5.00;1.00
13744;DHT22;6943;52.368;9.966;2023-02-24T03:00:09;5.10;1.00
13744;DHT22;6943;52.368;9.966;2023-02-24T03:02:40;5.10;1.00
13744;DHT22;6943;52.368;9.966;2023-02-24T03:05:08;5.10;1.00
13744;DHT22;6943;52.368;9.966;2023-02-24T03:07:40;5.00;1.00
13744;DHT22;6943;52.368;9.966;2023-02-24T03:10:10;5.10;1.00
13744;DHT22;6943;52.368;9.966;2023-02-24T03:12:49;5.00;1.00
13744;DHT22;6943;52.368;9.966;2023-02-24T03:15:16;5.00;1.00
13744;DHT22;6943;52.368;9.966;2023-02-24T03:17:47;5.00;1.00
13744;DHT22;6943;52.368;9.966;2023-02-24T03:20:20;5.00;1.00
13744;DHT22;6943;52.368;9.966;2023-02-24T03:22:59;5.00;1.00
13744;DHT22;6943;52.368;9.966;2023-02-24T03:25:35;5.00;1.00
13744;DHT22;6943;52.368;9.966;2023-02-24T03:28:10;4.90;99.90
13744;DHT22;6943;52.368;9.966;2023-02-24T03:30:43;4.80;99.90
13744;DHT22;6943;52.368;9.966;2023-02-24T03:33:20;4.70;99.90
13744;DHT22;6943;52.368;9.966;2023-02-24T03:35:48;4.60;99.90
13744;DHT22;6943;52.368;9.966;2023-02-24T03:38:15;4.60;41.20
13744;DHT22;6943;52.368;9.966;2023-02-24T03:40:41;4.50;1.00
13744;DHT22;6943;52.368;9.966;2023-02-24T03:43:17;4.50;9.50
13744;DHT22;6943;52.368;9.966;2023-02-24T03:45:47;4.50;99.90
13744;DHT22;6943;52.368;9.966;2023-02-24T03:48:13;4.50;99.90
13744;DHT22;6943;52.368;9.966;2023-02-24T03:50:41;4.50;99.90
13744;DHT22;6943;52.368;9.966;2023-02-24T03:53:24;4.50;99.90
13744;DHT22;6943;52.368;9.966;2023-02-24T03:56:15;4.50;99.90
13744;DHT22;6943;52.368;9.966;2023-02-24T03:59:08;4.50;99.90
13744;DHT22;6943;52.368;9.966;2023-02-24T04:04:28;4.50;93.70
13744;DHT22;6943;52.368;9.966;2023-02-24T04:07:01;4.50;1.00
13744;DHT22;6943;52.368;9.966;2023-02-24T04:09:48;4.40;1.00
13744;DHT22;6943;52.368;9.966;2023-02-24T04:12:23;4.50;1.00
13744;DHT22;6943;52.368;9.966;2023-02-24T04:15:00;4.50;1.00
13744;DHT22;6943;52.368;9.966;2023-02-24T04:17:40;4.50;1.00
13744;DHT22;6943;52.368;9.966;2023-02-24T04:20:09;4.50;1.00
13744;DHT22;6943;52.368;9.966;2023-02-24T04:22:44;4.50;1.00
13744;DHT22;6943;52.368;9.966;2023-02-24T04:25:15;4.50;1.00
13744;DHT22;6943;52.368;9.966;2023-02-24T04:27:42;4.50;1.00
13744;DHT22;6943;52.368;9.966;2023-02-24T04:30:09;4.50;1.00
13744;DHT22;6943;52.368;9.966;2023-02-24T04:32:36;4.50;99.90
13744;DHT22;6943;52.368;9.966;2023-02-24T04:35:08;4.50;1.00
13744;DHT22;6943;52.368;9.966;2023-02-24T04:37:35;4.50;1.00
13744;DHT22;6943;52.368;9.966;2023-02-24T04:40:04;4.60;1.00
13744;DHT22;6943;52.368;9.966;2023-02-24T04:42:35;4.60;1.00
13744;DHT22;6943;52.368;9.966;2023-02-24T04:45:05;4.50;1.00
13744;DHT22;6943;52.368;9.966;2023-02-24T04:47:34;4.60;1.00
13744;DHT22;6943;52.368;9.966;2023-02-24T04:50:02;4.50;99.90
13744;DHT22;6943;52.368;9.966;2023-02-24T04:52:31;4.50;99.90
13744;DHT22;6943;52.368;9.966;2023-02-24T04:54:56;4.40;99.90
13744;DHT22;6943;52.368;9.966;2023-02-24T04:57:22;4.40;99.90
13744;DHT22;6943;52.368;9.966;2023-02-24T04:59:49;4.40;99.90
13744;DHT22;6943;52.368;9.966;2023-02-24T05:02:18;4.40;99.90
13744;DHT22;6943;52.368;9.966;2023-02-24T05:04:44;4.40;91.70
13744;DHT22;6943;52.368;9.966;2023-02-24T05:07:14;4.50;99.90
13744;DHT22;6943;52.368;9.966;2023-02-24T05:09:40;4.40;99.90
13744;DHT22;6943;52.368;9.966;2023-02-24T05:12:06;4.40;99.90
13744;DHT22;6943;52.368;9.966;2023-02-24T05:14:33;4.40;99.90
13744;DHT22;6943;52.368;9.966;2023-02-24T05:16:59;4.40;99.90
13744;DHT22;6943;52.368;9.966;2023-02-24T05:19:25;4.30;99.90
13744;DHT22;6943;52.368;9.966;2023-02-24T05:22:10;4.30;99.90
13744;DHT22;6943;52.368;9.966;2023-02-24T05:24:36;4.30;99.90
13744;DHT22;6943;52.368;9.966;2023-02-24T05:27:01;4.30;99.90
13744;DHT22;6943;52.368;9.966;2023-02-24T05:29:30;4.30;99.90
13744;DHT22;6943;52.368;9.966;2023-02-24T05:31:57;4.30;99.90
13744;DHT22;6943;52.368;9.966;2023-02-24T05:34:25;4.30;99.90
13744;DHT22;6943;52.368;9.966;2023-02-24T05:36:51;4.30;99.90
13744;DHT22;6943;52.368;9.966;2023-02-24T05:39:18;4.30;99.90
13744;DHT22;6943;52.368;9.966;2023-02-24T05:41:45;4.30;1.00
13744;DHT22;6943;52.368;9.966;2023-02-24T05:44:15;4.30;1.00
13744;DHT22;6943;52.368;9.966;2023-02-24T05:46:43;4.30;1.00
13744;DHT22;6943;52.368;9.966;2023-02-24T05:49:15;4.30;1.00
13744;DHT22;6943;52.368;9.966;2023-02-24T05:51:44;4.30;1.00
13744;DHT22;6943;52.368;9.966;2023-02-24T05:54:19;4.20;1.00
13744;DHT22;6943;52.368;9.966;2023-02-24T05:56:45;4.30;1.00
13744;DHT22;6943;52.368;9.966;2023-02-24T05:59:11;4.30;1.00
13744;DHT22;6943;52.368;9.966;2023-02-24T06:01:40;4.30;1.00
13744;DHT22;6943;52.368;9.966;2023-02-24T06:04:07;4.40;1.00
13744;DHT22;6943;52.368;9.966;2023-02-24T06:06:33;4.30;1.00
13744;DHT22;6943;52.368;9.966;2023-02-24T06:09:00;4.30;1.00
13744;DHT22;6943;52.368;9.966;2023-02-24T06:11:26;4.30;1.00
13744;DHT22;6943;52.368;9.966;2023-02-24T06:13:52;4.30;99.90
13744;DHT22;6943;52.368;9.966;2023-02-24T06:16:22;4.30;99.90
13744;DHT22;6943;52.368;9.966;2023-02-24T06:18:50;4.30;99.90
13744;DHT22;6943;52.368;9.966;2023-02-24T06:21:16;4.30;99.90
13744;DHT22;6943;52.368;9.966;2023-02-24T06:23:41;4.30;99.90
13744;DHT22;6943;52.368;9.966;2023-02-24T06:26:07;4.30;99.90
13744;DHT22;6943;52.368;9.966;2023-02-24T06:28:38;4.20;99.90
13744;DHT22;6943;52.368;9.966;2023-02-24T06:31:05;4.30;99.90
13744;DHT22;6943;52.368;9.966;2023-02-24T06:33:34;4.30;99.90
13744;DHT22;6943;52.368;9.966;2023-02-24T06:36:00;4.20;99.90
13744;DHT22;6943;52.368;9.966;2023-02-24T06:38:28;4.20;99.90
13744;DHT22;6943;52.368;9.966;2023-02-24T06:40:56;4.30;99.90
13744;DHT22;6943;52.368;9.966;2023-02-24T06:43:22;4.30;92.50
13744;DHT22;6943;52.368;9.966;2023-02-24T06:45:47;4.20;49.00
13744;DHT22;6943;52.368;9.966;2023-02-24T06:48:14;4.20;21.60
13744;DHT22;6943;52.368;9.966;2023-02-24T06:50:40;4.30;14.90
13744;DHT22;6943;52.368;9.966;2023-02-24T06:53:05;4.20;73.00
13744;DHT22;6943;52.368;9.966;2023-02-24T06:55:46;4.20;59.00
13744;DHT22;6943;52.368;9.966;2023-02-24T06:58:17;4.30;3.80
13744;DHT22;6943;52.368;9.966;2023-02-24T07:00:43;4.30;1.00
13744;DHT22;6943;52.368;9.966;2023-02-24T07:03:24;4.40;1.00
13744;DHT22;6943;52.368;9.966;2023-02-24T07:06:06;4.30;1.00
13744;DHT22;6943;52.368;9.966;2023-02-24T07:08:49;4.40;1.00
13744;DHT22;6943;52.368;9.966;2023-02-24T07:11:15;4.40;1.00
13744;DHT22;6943;52.368;9.966;2023-02-24T07:13:44;4.40;1.00
13744;DHT22;6943;52.368;9.966;2023-02-24T07:16:12;4.40;1.00
13744;DHT22;6943;52.368;9.966;2023-02-24T07:18:40;4.50;1.00
13744;DHT22;6943;52.368;9.966;2023-02-24T07:21:08;4.50;1.00
13744;DHT22;6943;52.368;9.966;2023-02-24T07:23:40;4.50;1.00
13744;DHT22;6943;52.368;9.966;2023-02-24T07:26:11;4.50;1.00
13744;DHT22;6943;52.368;9.966;2023-02-24T07:28:41;4.50;1.00
13744;DHT22;6943;52.368;9.966;2023-02-24T07:31:09;4.50;1.00
13744;DHT22;6943;52.368;9.966;2023-02-24T07:33:39;4.60;1.00
13744;DHT22;6943;52.368;9.966;2023-02-24T07:36:07;4.60;1.00
13744;DHT22;6943;52.368;9.966;2023-02-24T07:38:40;4.60;1.00
13744;DHT22;6943;52.368;9.966;2023-02-24T07:41:07;4.60;1.00
13744;DHT22;6943;52.368;9.966;2023-02-24T07:43:35;4.60;1.00
13744;DHT22;6943;52.368;9.966;2023-02-24T07:46:15;4.60;1.00
13744;DHT22;6943;52.368;9.966;2023-02-24T07:48:41;4.70;1.00
13744;DHT22;6943;52.368;9.966;2023-02-24T07:51:08;4.60;1.00
13744;DHT22;6943;52.368;9.966;2023-02-24T07:53:34;4.60;1.00
13744;DHT22;6943;52.368;9.966;2023-02-24T07:56:05;4.70;1.00
13744;DHT22;6943;52.368;9.966;2023-02-24T07:58:34;4.70;1.00
13744;DHT22;6943;52.368;9.966;2023-02-24T08:01:00;4.70;1.00
13744;DHT22;6943;52.368;9.966;2023-02-24T08:03:35;4.70;1.00
13744;DHT22;6943;52.368;9.966;2023-02-24T08:06:08;4.80;1.00
13744;DHT22;6943;52.368;9.966;2023-02-24T08:08:43;4.80;1.00
13744;DHT22;6943;52.368;9.966;2023-02-24T08:11:35;4.90;1.00
13744;DHT22;6943;52.368;9.966;2023-02-24T08:14:04;4.90;1.00
13744;DHT22;6943;52.368;9.966;2023-02-24T08:16:47;4.90;1.00
13744;DHT22;6943;52.368;9.966;2023-02-24T08:19:16;4.90;1.00
13744;DHT22;6943;52.368;9.966;2023-02-24T08:21:47;4.80;1.00
13744;DHT22;6943;52.368;9.966;2023-02-24T08:24:22;4.80;1.00
13744;DHT22;6943;52.368;9.966;2023-02-24T08:26:51;4.80;1.00
13744;DHT22;6943;52.368;9.966;2023-02-24T08:29:35;4.80;1.00
13744;DHT22;6943;52.368;9.966;2023-02-24T08:32:19;4.80;1.00
13744;DHT22;6943;52.368;9.966;2023-02-24T08:34:48;4.80;1.00
13744;DHT22;6943;52.368;9.966;2023-02-24T08:37:14;4.80;1.00
13744;DHT22;6943;52.368;9.966;2023-02-24T08:39:40;4.80;1.00
13744;DHT22;6943;52.368;9.966;2023-02-24T08:42:08;4.90;1.00
13744;DHT22;6943;52.368;9.966;2023-02-24T08:44:34;4.90;1.00
13744;DHT22;6943;52.368;9.966;2023-02-24T08:47:01;4.90;1.00
13744;DHT22;6943;52.368;9.966;2023-02-24T08:49:29;5.00;1.00
13744;DHT22;6943;52.368;9.966;2023-02-24T08:51:57;5.00;1.00
13744;DHT22;6943;52.368;9.966;2023-02-24T08:54:26;5.00;1.00
13744;DHT22;6943;52.368;9.966;2023-02-24T08:56:56;4.90;1.00
13744;DHT22;6943;52.368;9.966;2023-02-24T08:59:25;4.80;34.00
13744;DHT22;6943;52.368;9.966;2023-02-24T09:02:08;4.90;99.90
13744;DHT22;6943;52.368;9.966;2023-02-24T09:04:53;4.80;99.90
13744;DHT22;6943;52.368;9.966;2023-02-24T09:07:31;4.80;1.00
13744;DHT22;6943;52.368;9.966;2023-02-24T09:10:00;4.70;1.00
13744;DHT22;6943;52.368;9.966;2023-02-24T09:12:28;4.60;1.00
13744;DHT22;6943;52.368;9.966;2023-02-24T09:14:56;4.50;1.00
13744;DHT22;6943;52.368;9.966;2023-02-24T09:17:24;4.50;99.90
13744;DHT22;6943;52.368;9.966;2023-02-24T09:20:13;4.40;1.00
13744;DHT22;6943;52.368;9.966;2023-02-24T09:22:54;4.40;1.00
13744;DHT22;6943;52.368;9.966;2023-02-24T09:25:30;4.40;1.00
13744;DHT22;6943;52.368;9.966;2023-02-24T09:28:06;4.40;1.00
13744;DHT22;6943;52.368;9.966;2023-02-24T09:30:34;4.50;1.00
13744;DHT22;6943;52.368;9.966;2023-02-24T09:33:04;4.50;1.00
13744;DHT22;6943;52.368;9.966;2023-02-24T09:35:29;4.50;1.00
13744;DHT22;6943;52.368;9.966;2023-02-24T09:37:58;4.50;1.00
13744;DHT22;6943;52.368;9.966;2023-02-24T09:40:31;4.50;1.00
13744;DHT22;6943;52.368;9.966;2023-02-24T09:43:05;4.40;1.00
13744;DHT22;6943;52.368;9.966;2023-02-24T09:45:35;4.40;99.90
13744;DHT22;6943;52.368;9.966;2023-02-24T09:48:11;4.40;1.00
13744;DHT22;6943;52.368;9.966;2023-02-24T09:50:38;4.40;99.90
13744;DHT22;6943;52.368;9.966;2023-02-24T09:53:23;4.30;99.90
13744;DHT22;6943;52.368;9.966;2023-02-24T09:56:02;4.20;1.00
13744;DHT22;6943;52.368;9.966;2023-02-24T10:04:13;4.70;1.00
13744;DHT22;6943;52.368;9.966;2023-02-24T10:09:40;5.00;99.90
13744;DHT22;6943;52.368;9.966;2023-02-24T10:12:18;5.10;1.00
13744;DHT22;6943;52.368;9.966;2023-02-24T10:15:12;4.90;1.00
13744;DHT22;6943;52.368;9.966;2023-02-24T10:17:50;4.80;99.90
13744;DHT22;6943;52.368;9.966;2023-02-24T10:20:24;4.80;99.90
13744;DHT22;6943;52.368;9.966;2023-02-24T10:23:13;4.70;99.90
13744;DHT22;6943;52.368;9.966;2023-02-24T10:25:48;4.70;99.90
13744;DHT22;6943;52.368;9.966;2023-02-24T10:31:10;4.50;1.00
13744;DHT22;6943;52.368;9.966;2023-02-24T10:33:56;4.50;99.90
13744;DHT22;6943;52.368;9.966;2023-02-24T10:36:24;4.50;99.90
13744;DHT22;6943;52.368;9.966;2023-02-24T10:39:15;4.40;99.90
13744;DHT22;6943;52.368;9.966;2023-02-24T10:41:56;4.30;99.90
13744;DHT22;6943;52.368;9.966;2023-02-24T10:44:26;4.30;1.00
13744;DHT22;6943;52.368;9.966;2023-02-24T10:47:03;4.40;1.00
13744;DHT22;6943;52.368;9.966;2023-02-24T10:49:43;4.60;1.00
13744;DHT22;6943;52.368;9.966;2023-02-24T10:52:22;4.80;1.00
13744;DHT22;6943;52.368;9.966;2023-02-24T10:55:13;4.80;1.00
13744;DHT22;6943;52.368;9.966;2023-02-24T10:58:00;4.90;1.00
13744;DHT22;6943;52.368;9.966;2023-02-24T11:00:45;4.90;1.00
13744;DHT22;6943;52.368;9.966;2023-02-24T11:03:30;4.90;1.00
13744;DHT22;6943;52.368;9.966;2023-02-24T11:06:18;4.80;1.00
13744;DHT22;6943;52.368;9.966;2023-02-24T11:09:02;4.70;99.90
13744;DHT22;6943;52.368;9.966;2023-02-24T11:11:45;4.70;1.00
13744;DHT22;6943;52.368;9.966;2023-02-24T11:14:54;4.70;99.90
13744;DHT22;6943;52.368;9.966;2023-02-24T11:17:49;4.70;99.90
13744;DHT22;6943;52.368;9.966;2023-02-24T11:20:30;4.70;1.00
13744;DHT22;6943;52.368;9.966;2023-02-24T11:23:01;4.60;99.90
13744;DHT22;6943;52.368;9.966;2023-02-24T11:25:39;4.60;1.00
13744;DHT22;6943;52.368;9.966;2023-02-24T11:33:41;4.70;99.90
13744;DHT22;6943;52.368;9.966;2023-02-24T11:41:33;4.60;1.00
13744;DHT22;6943;52.368;9.966;2023-02-24T11:44:07;4.60;1.00
13744;DHT22;6943;52.368;9.966;2023-02-24T11:46:55;4.60;1.00
13744;DHT22;6943;52.368;9.966;2023-02-24T11:49:36;4.50;1.00
13744;DHT22;6943;52.368;9.966;2023-02-24T11:52:03;4.50;1.00
13744;DHT22;6943;52.368;9.966;2023-02-24T11:54:36;4.50;1.00
13744;DHT22;6943;52.368;9.966;2023-02-24T11:57:04;4.60;1.00
13744;DHT22;6943;52.368;9.966;2023-02-24T11:59:45;4.60;99.90
13744;DHT22;6943;52.368;9.966;2023-02-24T12:02:40;4.50;99.90
13744;DHT22;6943;52.368;9.966;2023-02-24T12:05:13;4.50;99.90
13744;DHT22;6943;52.368;9.966;2023-02-24T12:07:43;4.60;1.00
13744;DHT22;6943;52.368;9.966;2023-02-24T12:10:30;4.60;99.90
13744;DHT22;6943;52.368;9.966;2023-02-24T12:13:16;4.60;1.00
13744;DHT22;6943;52.368;9.966;2023-02-24T12:18:32;4.40;1.00
13744;DHT22;6943;52.368;9.966;2023-02-24T12:21:14;4.30;99.90
13744;DHT22;6943;52.368;9.966;2023-02-24T12:23:43;4.30;15.40
13744;DHT22;6943;52.368;9.966;2023-02-24T12:26:29;4.30;1.00
13744;DHT22;6943;52.368;9.966;2023-02-24T12:45:28;4.30;1.00
13744;DHT22;6943;52.368;9.966;2023-02-24T12:50:44;4.30;99.90
13744;DHT22;6943;52.368;9.966;2023-02-24T12:53:45;4.40;99.90
13744;DHT22;6943;52.368;9.966;2023-02-24T12:56:19;4.40;93.90
13744;DHT22;6943;52.368;9.966;2023-02-24T12:58:49;4.30;99.90
13744;DHT22;6943;52.368;9.966;2023-02-24T13:09:32;4.30;1.00
13744;DHT22;6943;52.368;9.966;2023-02-24T13:12:09;4.20;1.00
13744;DHT22;6943;52.368;9.966;2023-02-24T13:14:38;4.10;1.00
13744;DHT22;6943;52.368;9.966;2023-02-24T13:19:37;4.20;99.90
13744;DHT22;6943;52.368;9.966;2023-02-24T13:22:07;4.20;89.60
13744;DHT22;6943;52.368;9.966;2023-02-24T13:25:09;4.20;1.00
13744;DHT22;6943;52.368;9.966;2023-02-24T13:27:39;4.20;1.00
13744;DHT22;6943;52.368;9.966;2023-02-24T13:32:44;4.00;99.90
13744;DHT22;6943;52.368;9.966;2023-02-24T13:37:44;3.90;1.00
13744;DHT22;6943;52.368;9.966;2023-02-24T13:45:28;3.90;1.00
13744;DHT22;6943;52.368;9.966;2023-02-24T14:02:37;4.30;1.00
13744;DHT22;6943;52.368;9.966;2023-02-24T14:05:26;4.30;1.00
13744;DHT22;6943;52.368;9.966;2023-02-24T14:07:53;4.40;99.90
13744;DHT22;6943;52.368;9.966;2023-02-24T14:10:22;4.50;1.00
13744;DHT22;6943;52.368;9.966;2023-02-24T14:12:59;4.40;1.00
13744;DHT22;6943;52.368;9.966;2023-02-24T14:15:26;4.50;1.00
13744;DHT22;6943;52.368;9.966;2023-02-24T14:18:03;4.60;1.00
13744;DHT22;6943;52.368;9.966;2023-02-24T14:20:34;4.60;99.90
13744;DHT22;6943;52.368;9.966;2023-02-24T14:23:26;4.60;99.90
13744;DHT22;6943;52.368;9.966;2023-02-24T14:25:59;4.60;99.90
13744;DHT22;6943;52.368;9.966;2023-02-24T14:28:31;4.60;99.90
13744;DHT22;6943;52.368;9.966;2023-02-24T14:30:58;4.60;99.90
13744;DHT22;6943;52.368;9.966;2023-02-24T14:33:33;4.60;1.00
13744;DHT22;6943;52.368;9.966;2023-02-24T14:36:00;4.60;99.90
13744;DHT22;6943;52.368;9.966;2023-02-24T14:38:30;4.60;1.00
13744;DHT22;6943;52.368;9.966;2023-02-24T14:40:56;4.70;99.90
13744;DHT22;6943;52.368;9.966;2023-02-24T14:43:21;4.60;1.00
13744;DHT22;6943;52.368;9.966;2023-02-24T14:45:49;4.50;1.00
13744;DHT22;6943;52.368;9.966;2023-02-24T14:50:49;4.50;1.00
13744;DHT22;6943;52.368;9.966;2023-02-24T14:53:17;4.50;1.00
13744;DHT22;6943;52.368;9.966;2023-02-24T14:55:48;4.60;1.00
13744;DHT22;6943;52.368;9.966;2023-02-24T14:58:26;4.60;1.00
13744;DHT22;6943;52.368;9.966;2023-02-24T15:01:35;4.60;1.00
13744;DHT22;6943;52.368;9.966;2023-02-24T15:04:14;4.60;1.00
13744;DHT22;6943;52.368;9.966;2023-02-24T15:06:45;4.60;1.00
13744;DHT22;6943;52.368;9.966;2023-02-24T15:09:19;4.60;1.00
13744;DHT22;6943;52.368;9.966;2023-02-24T15:11:46;4.60;1.00
13744;DHT22;6943;52.368;9.966;2023-02-24T15:14:30;4.70;1.00
13744;DHT22;6943;52.368;9.966;2023-02-24T15:17:00;4.80;99.90
13744;DHT22;6943;52.368;9.966;2023-02-24T15:19:31;4.80;1.00
13744;DHT22;6943;52.368;9.966;2023-02-24T15:21:58;4.80;1.00
13744;DHT22;6943;52.368;9.966;2023-02-24T15:29:29;4.90;99.90
13744;DHT22;6943;52.368;9.966;2023-02-24T15:31:56;4.90;99.90
13744;DHT22;6943;52.368;9.966;2023-02-24T15:34:36;4.90;1.00
13744;DHT22;6943;52.368;9.966;2023-02-24T15:37:15;4.90;83.10
13744;DHT22;6943;52.368;9.966;2023-02-24T15:39:44;4.80;99.90
13744;DHT22;6943;52.368;9.966;2023-02-24T15:42:22;4.70;1.00
13744;DHT22;6943;52.368;9.966;2023-02-24T15:44:53;4.80;1.00
13744;DHT22;6943;52.368;9.966;2023-02-24T15:47:25;4.80;1.00
13744;DHT22;6943;52.368;9.966;2023-02-24T15:49:51;4.80;78.10
13744;DHT22;6943;52.368;9.966;2023-02-24T15:52:22;4.80;52.80
13744;DHT22;6943;52.368;9.966;2023-02-24T15:54:48;4.80;23.60
13744;DHT22;6943;52.368;9.966;2023-02-24T15:57:16;4.80;1.00
13744;DHT22;6943;52.368;9.966;2023-02-24T15:59:42;4.80;99.90
13744;DHT22;6943;52.368;9.966;2023-02-24T16:02:13;4.80;99.90
13744;DHT22;6943;52.368;9.966;2023-02-24T16:04:41;4.80;1.00
13744;DHT22;6943;52.368;9.966;2023-02-24T16:07:10;4.80;1.00
13744;DHT22;6943;52.368;9.966;2023-02-24T16:09:40;4.80;1.00
13744;DHT22;6943;52.368;9.966;2023-02-24T16:12:12;4.80;1.00
13744;DHT22;6943;52.368;9.966;2023-02-24T16:14:39;4.70;1.00
13744;DHT22;6943;52.368;9.966;2023-02-24T16:17:15;5.70;99.90
13744;DHT22;6943;52.368;9.966;2023-02-24T16:19:42;4.80;99.90
13744;DHT22;6943;52.368;9.966;2023-02-24T16:22:09;4.70;1.00
13744;DHT22;6943;52.368;9.966;2023-02-24T16:24:34;4.70;1.00
13744;DHT22;6943;52.368;9.966;2023-02-24T16:27:00;4.70;1.00
13744;DHT22;6943;52.368;9.966;2023-02-24T16:29:25;4.70;1.00
13744;DHT22;6943;52.368;9.966;2023-02-24T16:31:51;4.70;1.00
13744;DHT22;6943;52.368;9.966;2023-02-24T16:34:16;4.70;1.00
13744;DHT22;6943;52.368;9.966;2023-02-24T16:36:42;4.70;1.00
13744;DHT22;6943;52.368;9.966;2023-02-24T16:39:11;4.70;1.00
13744;DHT22;6943;52.368;9.966;2023-02-24T16:41:37;4.70;1.00
13744;DHT22;6943;52.368;9.966;2023-02-24T16:44:02;4.70;1.00
13744;DHT22;6943;52.368;9.966;2023-02-24T16:46:36;4.70;1.00
13744;DHT22;6943;52.368;9.966;2023-02-24T16:49:07;4.70;1.00
13744;DHT22;6943;52.368;9.966;2023-02-24T16:51:33;4.70;1.00
13744;DHT22;6943;52.368;9.966;2023-02-24T16:54:00;4.70;1.00
13744;DHT22;6943;52.368;9.966;2023-02-24T16:56:25;4.70;1.00
13744;DHT22;6943;52.368;9.966;2023-02-24T16:58:51;4.70;1.00
13744;DHT22;6943;52.368;9.966;2023-02-24T17:01:20;4.60;1.00
13744;DHT22;6943;52.368;9.966;2023-02-24T17:03:48;4.70;1.00
13744;DHT22;6943;52.368;9.966;2023-02-24T17:06:15;4.70;1.00
13744;DHT22;6943;52.368;9.966;2023-02-24T17:08:40;4.70;1.00
13744;DHT22;6943;52.368;9.966;2023-02-24T17:11:18;4.70;1.00
13744;DHT22;6943;52.368;9.966;2023-02-24T17:13:44;4.70;1.00
13744;DHT22;6943;52.368;9.966;2023-02-24T17:16:10;4.70;7.80
13744;DHT22;6943;52.368;9.966;2023-02-24T17:18:36;4.70;4.60
13744;DHT22;6943;52.368;9.966;2023-02-24T17:21:03;4.70;1.00
13744;DHT22;6943;52.368;9.966;2023-02-24T17:23:28;4.70;1.00
13744;DHT22;6943;52.368;9.966;2023-02-24T17:25:56;4.70;1.00
13744;DHT22;6943;52.368;9.966;2023-02-24T17:28:23;4.70;1.00
13744;DHT22;6943;52.368;9.966;2023-02-24T17:30:48;4.70;1.00
13744;DHT22;6943;52.368;9.966;2023-02-24T17:33:14;4.70;1.00
13744;DHT22;6943;52.368;9.966;2023-02-24T17:35:43;4.70;1.00
13744;DHT22;6943;52.368;9.966;2023-02-24T17:38:15;4.80;1.00
13744;DHT22;6943;52.368;9.966;2023-02-24T17:40:44;4.80;5.50
13744;DHT22;6943;52.368;9.966;2023-02-24T17:43:10;4.80;1.00
13744;DHT22;6943;52.368;9.966;2023-02-24T17:45:36;4.80;1.00
13744;DHT22;6943;52.368;9.966;2023-02-24T17:48:07;4.90;32.60
13744;DHT22;6943;52.368;9.966;2023-02-24T17:50:33;4.90;40.30
13744;DHT22;6943;52.368;9.966;2023-02-24T17:52:58;4.90;30.80
13744;DHT22;6943;52.368;9.966;2023-02-24T17:55:24;4.90;68.00
13744;DHT22;6943;52.368;9.966;2023-02-24T17:57:49;4.90;95.60
13744;DHT22;6943;52.368;9.966;2023-02-24T18:00:15;5.00;99.90
13744;DHT22;6943;52.368;9.966;2023-02-24T18:02:41;5.00;99.90
13744;DHT22;6943;52.368;9.966;2023-02-24T18:05:07;5.00;99.90
13744;DHT22;6943;52.368;9.966;2023-02-24T18:07:32;5.00;99.90
13744;DHT22;6943;52.368;9.966;2023-02-24T18:09:58;5.00;99.90
13744;DHT22;6943;52.368;9.966;2023-02-24T18:12:24;5.00;99.90
13744;DHT22;6943;52.368;9.966;2023-02-24T18:14:50;5.00;99.90
13744;DHT22;6943;52.368;9.966;2023-02-24T18:17:15;5.00;99.90
13744;DHT22;6943;52.368;9.966;2023-02-24T18:19:41;5.00;99.90
13744;DHT22;6943;52.368;9.966;2023-02-24T18:22:06;5.00;99.90
13744;DHT22;6943;52.368;9.966;2023-02-24T18:24:32;5.00;99.90